Time;durP1;ratioP1;P1;durP2;ratioP2;P2;SDS_P1;SDS_P2;PMS_P1;PMS_P2;Temp;Humidity;BMP_temperature;BMP_pressure;BME280_temperature;BME280_humidity;BME280_pressure;Samples;Min_cycle;Max_cycle;Signal;HPM_P1;HPM_P2
2023/02/11 00:01:31;;;;;;;31.63;5.10;;;;;;;7.29;100.00;103380.41;5019518;28;20468;-43
2023/02/11 00:03:57;;;;;;;34.90;4.93;;;;;;;7.31;100.00;103375.84;5032334;28;20053;-44
2023/02/11 00:06:23;;;;;;;39.92;5.20;;;;;;;7.26;100.00;103379.66;5019822;28;20037;-45
2023/02/11 00:08:49;;;;;;;40.67;5.55;;;;;;;7.26;100.00;103374.28;5013362;28;20037;-42
2023/02/11 00:11:17;;;;;;;33.25;4.90;;;;;;;7.24;100.00;103359.28;5013431;28;20026;-44
2023/02/11 00:13:43;;;;;;;;;;;;;;;7.23;100.00;103358.44;5017069;28;20052;-43
2023/02/11 00:16:10;;;;;;;40.50;5.10;;;;;;;7.23;100.00;103358.44;5031870;28;19905;-43
2023/02/11 00:18:37;;;;;;;44.35;5.15;;;;;;;7.20;100.00;103361.31;5017964;28;20030;-44
2023/02/11 00:21:10;;;;;;;48.40;6.13;;;;;;;7.20;100.00;103366.66;5033116;28;20114;-44
2023/02/11 00:23:36;;;;;;;35.42;5.18;;;;;;;7.19;100.00;103358.75;5011906;28;20443;-44
2023/02/11 00:26:01;;;;;;;37.60;5.88;;;;;;;7.17;100.00;103356.16;5013156;28;20108;-40
2023/02/11 00:28:27;;;;;;;40.80;6.30;;;;;;;7.16;100.00;103359.78;5012811;28;20026;-44
2023/02/11 00:30:56;;;;;;;41.88;6.05;;;;;;;7.14;100.00;103348.31;5013103;28;20029;-44
2023/02/11 00:33:21;;;;;;;39.10;5.68;;;;;;;7.15;100.00;103349.16;5030309;28;20046;-42
2023/02/11 00:35:47;;;;;;;33.55;4.93;;;;;;;7.17;100.00;103348.13;5013647;28;20095;-43
2023/02/11 00:38:12;;;;;;;38.35;5.90;;;;;;;7.17;100.00;103348.13;5024065;28;20344;-44
2023/02/11 00:40:37;;;;;;;43.78;5.85;;;;;;;7.18;100.00;103344.47;5032540;28;20025;-43
2023/02/11 00:43:03;;;;;;;49.17;5.82;;;;;;;7.17;100.00;103341.91;5017388;28;20029;-43
2023/02/11 00:45:29;;;;;;;47.10;6.18;;;;;;;7.15;100.00;103342.00;5031729;28;20029;-42
2023/02/11 00:47:55;;;;;;;37.90;5.80;;;;;;;7.15;100.00;103344.66;5026652;28;20066;-44
2023/02/11 00:50:20;;;;;;;31.80;5.70;;;;;;;7.12;100.00;103344.00;5010565;28;20453;-43
2023/02/11 00:52:45;;;;;;;45.65;5.60;;;;;;;7.14;100.00;103337.59;5023614;28;20510;-43
2023/02/11 00:55:11;;;;;;;42.35;6.38;;;;;;;7.15;100.00;103335.78;5031796;28;20030;-44
2023/02/11 00:57:36;;;;;;;48.60;6.80;;;;;;;7.15;100.00;103338.47;5026807;28;20057;-43
2023/02/11 01:00:03;;;;;;;49.72;7.78;;;;;;;7.16;100.00;103351.75;5012171;28;20022;-42
2023/02/11 01:02:28;;;;;;;40.93;7.00;;;;;;;7.19;100.00;103358.75;5021728;28;20025;-44
2023/02/11 01:04:54;;;;;;;39.55;6.40;;;;;;;7.19;100.00;103362.28;5032418;28;20103;-44
2023/02/11 01:07:19;;;;;;;59.97;7.57;;;;;;;7.18;100.00;103371.25;5032224;28;20032;-42
2023/02/11 01:09:45;;;;;;;47.05;7.00;;;;;;;7.17;100.00;103353.47;5012209;28;20030;-43
2023/02/11 01:12:10;;;;;;;30.20;6.72;;;;;;;7.21;100.00;103343.41;5031811;28;20107;-44
2023/02/11 01:14:35;;;;;;;41.35;6.88;;;;;;;7.18;100.00;103341.78;5031966;28;20460;-42
2023/02/11 01:17:01;;;;;;;41.58;7.47;;;;;;;7.16;100.00;103334.81;5031033;28;20036;-41
2023/02/11 01:19:26;;;;;;;38.47;7.57;;;;;;;7.11;100.00;103332.44;5014445;28;20033;-43
2023/02/11 01:21:51;;;;;;;48.35;7.82;;;;;;;7.10;100.00;103335.22;5028350;28;20022;-42
2023/02/11 01:24:17;;;;;;;30.20;7.43;;;;;;;7.03;100.00;103353.50;5032042;28;20048;-42
2023/02/11 01:26:42;;;;;;;26.13;6.68;;;;;;;7.01;100.00;103355.41;5032204;28;20048;-43
2023/02/11 01:29:08;;;;;;;44.00;8.50;;;;;;;6.96;100.00;103357.50;5031050;28;20037;-42
2023/02/11 01:31:33;;;;;;;34.90;8.07;;;;;;;6.91;100.00;103357.78;5027801;28;20071;-42
2023/02/11 01:33:59;;;;;;;42.25;7.68;;;;;;;6.88;100.00;103357.13;5011269;28;20050;-43
2023/02/11 01:36:25;;;;;;;36.53;8.18;;;;;;;6.84;100.00;103347.56;5023105;28;20079;-43
2023/02/11 01:38:50;;;;;;;39.88;7.40;;;;;;;6.78;100.00;103341.63;5017571;28;20030;-43
2023/02/11 01:41:15;;;;;;;41.30;9.02;;;;;;;6.75;100.00;103338.31;5021458;28;20029;-42
2023/02/11 01:43:44;;;;;;;40.60;8.77;;;;;;;6.71;100.00;103337.63;5031519;28;20034;-43
2023/02/11 01:46:37;;;;;;;35.10;7.72;;;;;;;6.68;100.00;103340.47;5032856;28;20051;-44
2023/02/11 01:49:09;;;;;;;46.47;8.07;;;;;;;6.66;100.00;103341.53;5017732;28;20045;-42
2023/02/11 01:51:39;;;;;;;43.63;8.82;;;;;;;6.63;100.00;103342.59;5014183;28;20087;-43
2023/02/11 02:00:06;;;;;;;43.90;9.95;;;;;;;6.57;100.00;103337.63;5013874;28;20041;-43
2023/02/11 02:02:37;;;;;;;47.85;11.10;;;;;;;6.52;100.00;103324.53;5028160;28;20029;-43
2023/02/11 02:05:14;;;;;;;41.13;10.75;;;;;;;6.51;100.00;103343.34;5030765;28;20029;-42
2023/02/11 02:07:59;;;;;;;48.78;9.23;;;;;;;6.50;100.00;103337.16;5028226;28;20034;-43
2023/02/11 02:10:26;;;;;;;49.05;9.32;;;;;;;6.47;100.00;103331.09;5010152;28;20045;-44
2023/02/11 02:12:51;;;;;;;48.92;10.52;;;;;;;6.49;100.00;103334.56;5017013;28;20042;-42
2023/02/11 02:15:28;;;;;;;44.70;10.40;;;;;;;6.46;100.00;103324.06;5010994;28;20071;-42
2023/02/11 02:17:59;;;;;;;54.53;10.73;;;;;;;6.43;100.00;103337.63;5019847;28;20030;-42
2023/02/11 02:20:59;;;;;;;55.63;10.27;;;;;;;6.41;100.00;103334.16;5010978;28;20029;-42
2023/02/11 02:23:30;;;;;;;47.47;11.27;;;;;;;6.43;100.00;103334.94;5026623;28;20401;-45
2023/02/11 02:26:18;;;;;;;56.67;11.23;;;;;;;6.42;100.00;103335.88;5030259;28;20425;-43
2023/02/11 02:29:06;;;;;;;47.72;11.43;;;;;;;6.39;100.00;103342.28;5019244;28;20030;-43
2023/02/11 02:31:52;;;;;;;53.08;11.95;;;;;;;6.37;100.00;103345.06;5021520;28;20061;-43
2023/02/11 02:34:42;;;;;;;51.03;12.05;;;;;;;6.35;100.00;103348.78;5010221;28;20049;-44
2023/02/11 02:37:33;;;;;;;47.65;11.35;;;;;;;6.35;100.00;103356.81;5008928;28;20033;-43
2023/02/11 02:40:03;;;;;;;52.95;12.25;;;;;;;6.34;100.00;103369.28;5019147;28;20117;-42
2023/02/11 02:42:28;;;;;;;50.30;12.30;;;;;;;6.33;100.00;103356.88;5028999;28;20407;-42
2023/02/11 02:44:54;;;;;;;48.25;11.60;;;;;;;6.32;100.00;103363.19;5028107;28;20036;-43
2023/02/11 02:47:20;;;;;;;48.90;11.18;;;;;;;6.31;100.00;103368.63;5029997;28;20032;-43
2023/02/11 02:49:45;;;;;;;49.28;11.70;;;;;;;6.28;100.00;103358.97;5027584;28;20116;-44
2023/02/11 02:52:29;;;;;;;61.97;12.82;;;;;;;6.28;100.00;103353.63;5022851;28;20049;-43
2023/02/11 02:55:28;;;;;;;62.20;12.45;;;;;;;6.29;100.00;103362.50;5032352;28;20021;-43
2023/02/11 02:58:16;;;;;;;58.22;13.10;;;;;;;6.27;100.00;103351.06;5025848;28;20422;-43
2023/02/11 03:00:57;;;;;;;54.83;13.48;;;;;;;6.27;100.00;103351.91;5032014;28;20026;-42
2023/02/11 03:03:34;;;;;;;58.10;13.80;;;;;;;6.28;100.00;103369.66;5021417;28;20034;-42
2023/02/11 03:06:13;;;;;;;78.32;13.15;;;;;;;6.28;100.00;103369.66;5031849;28;20053;-44
2023/02/11 03:08:49;;;;;;;47.72;13.73;;;;;;;6.28;100.00;103368.81;5024111;28;20389;-43
2023/02/11 03:11:16;;;;;;;54.10;14.32;;;;;;;6.28;100.00;103364.31;5035394;28;20025;-43
2023/02/11 03:13:42;;;;;;;56.60;13.55;;;;;;;6.27;100.00;103359.94;5017967;28;20042;-42
2023/02/11 03:16:12;;;;;;;60.45;17.17;;;;;;;6.26;100.00;103354.66;5015126;28;20174;-43
2023/02/11 03:18:41;;;;;;;50.25;13.07;;;;;;;6.24;100.00;103352.09;5021986;28;20041;-44
2023/02/11 03:21:08;;;;;;;63.05;16.00;;;;;;;6.24;100.00;103352.09;5021152;28;20056;-42
2023/02/11 03:24:01;;;;;;;59.63;14.07;;;;;;;6.21;100.00;103349.59;5031574;28;20222;-43
2023/02/11 03:26:35;;;;;;;69.35;13.68;;;;;;;6.19;100.00;103354.19;5034225;28;20113;-42
2023/02/11 03:29:27;;;;;;;58.15;14.98;;;;;;;6.21;100.00;103370.97;5024650;28;20040;-43
2023/02/11 03:32:21;;;;;;;52.25;13.55;;;;;;;6.19;100.00;103369.34;5016332;28;20314;-44
2023/02/11 03:35:22;;;;;;;50.45;14.98;;;;;;;6.20;100.00;103360.41;5016131;28;20501;-43
2023/02/11 03:37:50;;;;;;;73.47;15.80;;;;;;;6.20;100.00;103366.59;5004325;28;20060;-43
2023/02/11 03:40:26;;;;;;;62.10;15.25;;;;;;;6.20;100.00;103353.22;5030391;28;20069;-43
2023/02/11 03:42:58;;;;;;;62.83;16.80;;;;;;;6.17;100.00;103356.09;5033781;28;20033;-41
2023/02/11 03:45:25;;;;;;;75.82;18.63;;;;;;;6.15;100.00;103336.59;5035387;28;20439;-43
2023/02/11 03:48:00;;;;;;;77.45;18.23;;;;;;;6.17;100.00;103340.03;5034554;28;20029;-43
2023/02/11 03:50:28;;;;;;;67.90;18.33;;;;;;;6.17;100.00;103339.19;5015060;28;20357;-43
2023/02/11 03:52:54;;;;;;;67.55;17.83;;;;;;;6.14;100.00;103345.59;5025118;28;20444;-42
2023/02/11 03:55:21;;;;;;;65.50;20.02;;;;;;;6.16;100.00;103346.31;5035010;28;20026;-43
2023/02/11 03:57:47;;;;;;;78.85;20.40;;;;;;;6.17;100.00;103348.06;5018661;28;20021;-42
2023/02/11 04:00:13;;;;;;;71.82;18.95;;;;;;;6.18;100.00;103352.44;5016463;28;20037;-43
2023/02/11 04:02:39;;;;;;;72.25;19.77;;;;;;;6.15;100.00;103349.97;5028020;28;20026;-43
2023/02/11 04:05:06;;;;;;;78.50;20.33;;;;;;;6.14;100.00;103353.59;5016409;28;20038;-42
2023/02/11 04:07:32;;;;;;;72.28;19.17;;;;;;;6.14;100.00;103350.94;5012986;28;20026;-44
2023/02/11 04:09:57;;;;;;;70.93;18.48;;;;;;;6.14;100.00;103343.75;5029886;28;20173;-45
2023/02/11 04:12:23;;;;;;;68.05;21.00;;;;;;;6.14;100.00;103346.44;5032122;28;20121;-42
2023/02/11 04:14:48;;;;;;;65.80;20.45;;;;;;;6.14;100.00;103353.59;5033851;28;20063;-43
2023/02/11 04:17:13;;;;;;;70.50;21.27;;;;;;;6.16;100.00;103351.69;5028848;28;20401;-42
2023/02/11 04:19:39;;;;;;;68.45;21.73;;;;;;;6.15;100.00;103352.63;5032483;28;20104;-42
2023/02/11 04:22:04;;;;;;;86.28;22.83;;;;;;;6.15;100.00;103348.16;5019672;28;20141;-42
2023/02/11 04:24:30;;;;;;;69.88;21.65;;;;;;;6.16;100.00;103349.00;5031315;28;20477;-43
2023/02/11 04:26:55;;;;;;;63.63;20.45;;;;;;;6.15;100.00;103348.16;5030975;28;20045;-44
2023/02/11 04:29:21;;;;;;;70.65;21.42;;;;;;;6.13;100.00;103344.72;5025677;28;20065;-44
2023/02/11 04:31:46;;;;;;;80.70;21.70;;;;;;;6.16;100.00;103349.00;5031992;28;20049;-43
2023/02/11 04:34:11;;;;;;;77.63;20.90;;;;;;;6.17;100.00;103342.72;5031984;28;20031;-42
2023/02/11 04:36:37;;;;;;;70.80;21.30;;;;;;;6.16;100.00;103349.00;5030628;28;20047;-43
2023/02/11 04:39:02;;;;;;;76.60;21.92;;;;;;;6.17;100.00;103348.06;5030688;28;20029;-43
2023/02/11 04:41:28;;;;;;;77.25;23.55;;;;;;;6.16;100.00;103349.00;5031777;28;20047;-43
2023/02/11 04:43:53;;;;;;;73.65;22.08;;;;;;;6.19;100.00;103354.19;5030218;28;20116;-43
2023/02/11 04:46:18;;;;;;;71.03;22.48;;;;;;;6.18;100.00;103357.81;5031838;28;20037;-42
2023/02/11 04:48:44;;;;;;;75.57;21.98;;;;;;;6.14;100.00;103354.47;5014403;28;20053;-43
2023/02/11 04:51:09;;;;;;;79.03;22.73;;;;;;;6.20;100.00;103358.56;5031244;28;20025;-42
2023/02/11 04:53:34;;;;;;;68.35;21.60;;;;;;;6.20;100.00;103360.41;5031503;28;20049;-42
2023/02/11 04:56:00;;;;;;;76.07;23.15;;;;;;;6.17;100.00;103361.44;5030944;28;20075;-43
2023/02/11 04:58:25;;;;;;;76.15;23.05;;;;;;;6.19;100.00;103342.59;5023077;28;20057;-44
2023/02/11 05:00:50;;;;;;;75.72;22.80;;;;;;;6.18;100.00;103346.25;5012716;28;20124;-44
2023/02/11 05:03:16;;;;;;;80.53;22.42;;;;;;;6.17;100.00;103347.22;5031309;28;20044;-42
2023/02/11 05:05:42;;;;;;;83.82;24.77;;;;;;;6.14;100.00;103345.59;5031636;28;20425;-43
2023/02/11 05:08:10;;;;;;;71.75;23.35;;;;;;;6.14;100.00;103337.56;5021604;28;20125;-42
2023/02/11 05:10:36;;;;;;;90.47;24.73;;;;;;;6.15;100.00;103341.94;5021875;28;20039;-43
2023/02/11 05:13:01;;;;;;;85.72;25.40;;;;;;;6.19;100.00;103343.50;5020084;28;20109;-44
2023/02/11 05:15:27;;;;;;;86.68;25.48;;;;;;;6.21;100.00;103341.56;5023076;28;20035;-42
2023/02/11 05:17:53;;;;;;;79.38;25.65;;;;;;;6.21;100.00;103349.59;5032213;28;20113;-42
2023/02/11 05:20:18;;;;;;;79.20;24.98;;;;;;;6.22;100.00;103353.16;5039729;28;20091;-42
2023/02/11 05:22:43;;;;;;;86.05;26.13;;;;;;;6.23;100.00;103350.38;5035289;28;20081;-43
2023/02/11 05:25:09;;;;;;;95.53;28.30;;;;;;;6.23;100.00;103353.03;5030394;28;20029;-42
2023/02/11 05:27:34;;;;;;;85.68;27.42;;;;;;;6.25;100.00;103361.84;5030391;28;20029;-42
2023/02/11 05:30:00;;;;;;;93.13;27.27;;;;;;;6.25;100.00;103369.84;5030717;28;20036;-43
2023/02/11 05:32:26;;;;;;;91.13;27.15;;;;;;;6.26;100.00;103376.91;5015220;28;20150;-43
2023/02/11 05:34:51;;;;;;;81.03;26.48;;;;;;;6.29;100.00;103376.75;5021319;28;20688;-44
2023/02/11 05:37:17;;;;;;;88.10;27.20;;;;;;;6.28;100.00;103379.50;5023411;28;20026;-41
2023/02/11 05:39:42;;;;;;;79.65;25.58;;;;;;;6.30;100.00;103380.28;5025098;28;20499;-43
2023/02/11 05:42:07;;;;;;;88.53;26.50;;;;;;;6.31;100.00;103390.88;5017134;28;20030;-43
2023/02/11 05:44:33;;;;;;;77.85;27.80;;;;;;;6.32;100.00;103395.28;5023269;28;20120;-43
2023/02/11 05:46:58;;;;;;;83.60;26.58;;;;;;;6.33;100.00;103397.00;5017419;28;20025;-43
2023/02/11 05:49:23;;;;;;;94.57;28.48;;;;;;;6.35;100.00;103397.78;5025720;28;20136;-41
2023/02/11 05:51:49;;;;;;;94.78;28.77;;;;;;;6.36;100.00;103396.81;5019990;28;20021;-43
2023/02/11 05:54:14;;;;;;;84.85;27.30;;;;;;;6.37;100.00;103400.34;5019480;28;20381;-42
2023/02/11 05:56:40;;;;;;;89.32;28.33;;;;;;;6.37;100.00;103395.88;5025688;28;20459;-42
2023/02/11 05:59:05;;;;;;;93.68;26.92;;;;;;;6.38;100.00;103386.91;5028882;28;20709;-43
2023/02/11 06:01:30;;;;;;;81.18;28.60;;;;;;;6.40;100.00;103391.28;5030983;28;20021;-41
2023/02/11 06:03:56;;;;;;;89.20;28.05;;;;;;;6.40;100.00;103388.59;5030969;28;20060;-42
2023/02/11 06:06:21;;;;;;;83.97;28.25;;;;;;;6.40;100.00;103375.22;5025730;28;20034;-42
2023/02/11 06:08:47;;;;;;;84.55;28.10;;;;;;;6.37;100.00;103379.84;5029028;28;20033;-42
2023/02/11 06:11:14;;;;;;;80.57;27.83;;;;;;;6.34;100.00;103369.28;5029207;28;20053;-44
2023/02/11 06:13:39;;;;;;;100.00;28.97;;;;;;;6.33;100.00;103372.06;5033486;28;20112;-42
2023/02/11 06:16:05;;;;;;;87.70;28.80;;;;;;;6.33;100.00;103372.94;5025793;28;20426;-44
2023/02/11 06:18:32;;;;;;;83.30;27.27;;;;;;;6.29;100.00;103376.75;5028218;28;20061;-42
2023/02/11 06:20:58;;;;;;;87.40;27.20;;;;;;;6.27;100.00;103377.81;5031533;28;20045;-44
2023/02/11 06:23:23;;;;;;;84.85;27.58;;;;;;;6.27;100.00;103386.69;5028749;28;20113;-43
2023/02/11 06:25:49;;;;;;;96.47;29.25;;;;;;;6.26;100.00;103371.56;5026551;28;20037;-45
2023/02/11 06:28:14;;;;;;;87.78;29.40;;;;;;;6.25;100.00;103377.88;5029586;28;20029;-44
2023/02/11 06:30:40;;;;;;;97.43;28.95;;;;;;;6.22;100.00;103375.41;5027665;28;20033;-41
2023/02/11 06:33:05;;;;;;;82.80;27.98;;;;;;;6.22;100.00;103382.56;5010789;28;20042;-41
2023/02/11 06:35:32;;;;;;;92.03;29.52;;;;;;;6.20;100.00;103387.13;5041587;28;20044;-42
2023/02/11 06:37:57;;;;;;;101.82;29.05;;;;;;;6.18;100.00;103384.53;5029360;28;20511;-42
2023/02/11 06:40:23;;;;;;;93.82;28.63;;;;;;;6.18;100.00;103386.34;5016615;28;20028;-43
2023/02/11 06:42:48;;;;;;;87.95;27.25;;;;;;;6.15;100.00;103379.38;5021645;28;20049;-42
2023/02/11 06:45:13;;;;;;;89.00;29.45;;;;;;;6.15;100.00;103390.06;5023032;28;20026;-43
2023/02/11 06:47:39;;;;;;;91.47;29.05;;;;;;;6.13;100.00;103392.84;5025110;28;20053;-42
2023/02/11 06:50:07;;;;;;;91.95;28.13;;;;;;;6.13;100.00;103391.97;5030901;28;20508;-42
2023/02/11 06:52:32;;;;;;;80.72;28.70;;;;;;;6.13;100.00;103391.97;5030674;28;20021;-42
2023/02/11 06:54:58;;;;;;;86.32;27.20;;;;;;;6.12;100.00;103395.59;5031075;28;20451;-41
2023/02/11 06:57:23;;;;;;;82.38;27.80;;;;;;;6.12;100.00;103403.63;5030425;28;20439;-42
2023/02/11 06:59:48;;;;;;;87.15;27.60;;;;;;;6.11;100.00;103399.25;5030241;28;20029;-44
2023/02/11 07:02:14;;;;;;;85.30;28.15;;;;;;;6.08;100.00;103399.41;5030501;28;20052;-43
2023/02/11 07:04:40;;;;;;;93.70;28.90;;;;;;;6.09;100.00;103406.50;5030395;28;20063;-44
2023/02/11 07:07:05;;;;;;;88.70;29.90;;;;;;;6.10;100.00;103400.19;5030226;28;20025;-43
2023/02/11 07:09:31;;;;;;;85.68;28.90;;;;;;;6.10;100.00;103402.84;5030059;28;20469;-42
2023/02/11 07:11:56;;;;;;;87.63;28.67;;;;;;;6.12;100.00;103406.31;5030227;28;20025;-43
2023/02/11 07:14:21;;;;;;;91.45;29.77;;;;;;;6.12;100.00;103406.31;5030192;28;20579;-42
2023/02/11 07:16:47;;;;;;;90.50;28.98;;;;;;;6.13;100.00;103408.00;5030103;28;20080;-42
2023/02/11 07:19:12;;;;;;;88.97;30.25;;;;;;;6.17;100.00;103416.72;5030801;28;20017;-42
2023/02/11 07:21:37;;;;;;;99.57;29.20;;;;;;;6.22;100.00;103426.22;5030783;28;20045;-44
2023/02/11 07:24:09;;;;;;;85.40;29.95;;;;;;;6.28;100.00;103431.19;5022486;28;20380;-42
2023/02/11 07:26:35;;;;;;;92.53;29.73;;;;;;;6.32;100.00;103429.22;5030526;28;20038;-43
2023/02/11 07:29:01;;;;;;;94.45;28.98;;;;;;;6.37;100.00;103427.09;5029662;28;20029;-41
2023/02/11 07:31:27;;;;;;;90.50;29.80;;;;;;;6.40;100.00;103418.91;5029865;28;20513;-43
2023/02/11 07:33:55;;;;;;;97.30;31.48;;;;;;;6.44;100.00;103427.59;5030406;28;20053;-43
2023/02/11 07:36:21;;;;;;;97.75;30.38;;;;;;;6.49;100.00;103426.38;5030030;28;20025;-43
2023/02/11 07:38:46;;;;;;;82.65;28.85;;;;;;;6.53;100.00;103432.41;5030011;28;20013;-42
2023/02/11 07:41:14;;;;;;;92.43;29.10;;;;;;;6.56;100.00;103442.94;5031232;28;20047;-43
2023/02/11 07:43:40;;;;;;;95.18;29.67;;;;;;;6.61;100.00;103435.50;5033913;28;20500;-41
2023/02/11 07:46:08;;;;;;;86.15;28.67;;;;;;;6.66;100.00;103443.22;5033553;28;20056;-42
2023/02/11 07:48:33;;;;;;;78.13;28.17;;;;;;;6.71;100.00;103433.97;5033981;28;20021;-43
2023/02/11 07:51:12;;;;;;;79.25;27.52;;;;;;;6.74;100.00;103440.94;5032152;28;20121;-43
2023/02/11 07:53:37;;;;;;;86.55;26.08;;;;;;;6.80;100.00;103441.44;5033282;28;20040;-41
2023/02/11 07:56:04;;;;;;;91.25;28.15;;;;;;;6.83;100.00;103440.41;5032446;28;20026;-42
2023/02/11 07:58:29;;;;;;;82.95;28.42;;;;;;;6.86;100.00;103439.34;5033145;28;20029;-43
2023/02/11 08:00:59;;;;;;;70.53;25.67;;;;;;;6.93;100.00;103446.06;5031830;28;20038;-42
2023/02/11 08:03:25;;;;;;;70.03;24.90;;;;;;;6.99;100.00;103451.88;5032855;28;20037;-42
2023/02/11 08:05:50;;;;;;;69.55;26.30;;;;;;;7.00;100.00;103447.38;5033074;28;20040;-42
2023/02/11 08:08:16;;;;;;;70.47;25.05;;;;;;;7.01;100.00;103452.66;5033559;28;20431;-42
2023/02/11 08:10:41;;;;;;;75.78;26.40;;;;;;;7.04;100.00;103447.09;5033527;28;20473;-44
2023/02/11 08:13:06;;;;;;;65.88;24.33;;;;;;;7.09;100.00;103440.63;5031699;28;20076;-44
2023/02/11 08:15:32;;;;;;;74.25;25.02;;;;;;;7.17;100.00;103449.88;5032910;28;20026;-42
2023/02/11 08:17:57;;;;;;;74.38;23.55;;;;;;;7.19;100.00;103453.34;5033420;28;20030;-43
2023/02/11 08:20:22;;;;;;;52.70;22.33;;;;;;;7.21;100.00;103440.72;5032654;28;20032;-42
2023/02/11 08:22:48;;;;;;;54.38;22.58;;;;;;;7.26;100.00;103448.44;5032689;28;20030;-42
2023/02/11 08:25:13;;;;;;;66.70;23.42;;;;;;;7.30;100.00;103446.44;5032608;28;20014;-43
2023/02/11 08:27:38;;;;;;;56.28;23.33;;;;;;;7.28;100.00;103449.22;5032489;28;20021;-44
2023/02/11 08:30:04;;;;;;;57.70;20.90;;;;;;;7.29;100.00;103444.72;5032226;28;20033;-43
2023/02/11 08:32:29;;;;;;;55.22;23.23;;;;;;;7.32;100.00;103441.84;5032101;28;20045;-43
2023/02/11 08:34:55;;;;;;;53.13;21.42;;;;;;;7.38;100.00;103452.19;5032251;28;20022;-42
2023/02/11 08:37:21;;;;;;;47.78;20.55;;;;;;;7.41;100.00;103455.50;5032291;28;20026;-43
2023/02/11 08:39:46;;;;;;;50.72;20.60;;;;;;;7.49;100.00;103460.41;5032318;28;20036;-42
2023/02/11 08:42:14;;;;;;;48.53;21.25;;;;;;;7.53;100.00;103456.56;5032220;28;20365;-42
2023/02/11 08:44:39;;;;;;;55.17;19.60;;;;;;;7.54;100.00;103452.94;5032602;28;20075;-42
2023/02/11 08:47:05;;;;;;;52.60;20.27;;;;;;;7.59;100.00;103456.16;5032506;28;20654;-44
2023/02/11 08:49:31;;;;;;;53.28;19.55;;;;;;;7.65;100.00;103460.28;5024501;28;20037;-42
2023/02/11 08:52:01;;;;;;;51.30;18.75;;;;;;;7.67;100.00;103461.03;5018631;28;20029;-43
2023/02/11 08:54:26;;;;;;;54.25;18.55;;;;;;;7.64;100.00;103464.78;5022281;28;20388;-43
2023/02/11 08:56:51;;;;;;;43.33;17.90;;;;;;;7.73;100.00;103465.16;5012360;28;20017;-42
2023/02/11 08:59:17;;;;;;;51.75;17.75;;;;;;;7.78;100.00;103460.34;5014600;28;20040;-43
2023/02/11 09:01:42;;;;;;;46.30;17.30;;;;;;;7.76;100.00;103460.44;5019521;28;20570;-43
2023/02/11 09:04:09;;;;;;;45.03;16.25;;;;;;;7.80;100.00;103463.78;5019762;28;20503;-43
2023/02/11 09:06:34;;;;;;;41.88;15.70;;;;;;;7.82;100.00;103461.84;5020172;28;20056;-42
2023/02/11 09:08:59;;;;;;;39.22;16.35;;;;;;;7.88;100.00;103462.34;5013826;28;20473;-44
2023/02/11 09:11:28;;;;;;;35.75;16.00;;;;;;;7.87;100.00;103449.91;5013390;28;20442;-44
2023/02/11 09:13:53;;;;;;;40.03;15.25;;;;;;;7.93;100.00;103448.63;5017692;28;20030;-42
2023/02/11 09:16:27;;;;;;;35.80;14.02;;;;;;;7.98;100.00;103450.97;5018056;28;20037;-41
2023/02/11 09:18:55;;;;;;;41.85;15.80;;;;;;;8.05;100.00;103452.31;5014328;28;20396;-43
2023/02/11 09:21:20;;;;;;;32.20;14.90;;;;;;;8.09;100.00;103460.06;5021854;28;20340;-44
2023/02/11 09:23:47;;;;;;;35.38;14.38;;;;;;;8.11;100.00;103451.94;5010243;28;20022;-43
2023/02/11 09:26:24;;;;;;;38.47;14.15;;;;;;;8.11;100.00;103447.41;5019699;28;20638;-42
2023/02/11 09:28:50;;;;;;;35.90;14.50;;;;;;;8.20;100.00;103450.44;5014800;28;20025;-43
2023/02/11 09:31:18;;;;;;;34.95;14.90;;;;;;;8.22;100.00;103448.53;5010108;28;20366;-42
2023/02/11 09:33:48;;;;;;;27.10;13.93;;;;;;;8.27;100.00;103443.72;5013239;28;20073;-45
2023/02/11 09:36:16;;;;;;;37.13;13.85;;;;;;;8.30;100.00;103446.19;5013305;28;20025;-42
2023/02/11 09:38:42;;;;;;;28.58;13.73;;;;;;;8.36;100.00;103451.13;5029056;28;20039;-44
2023/02/11 09:41:22;;;;;;;35.60;14.48;;;;;;;8.40;100.00;103458.06;5029225;28;20037;-46
2023/02/11 09:43:50;;;;;;;38.85;14.63;;;;;;;8.42;100.00;103442.69;5029499;28;20026;-44
2023/02/11 09:46:17;;;;;;;32.83;14.30;;;;;;;8.43;100.00;103447.09;5013912;28;20070;-44
2023/02/11 09:48:44;;;;;;;36.10;13.43;;;;;;;8.45;100.00;103455.94;5008343;28;20136;-44
2023/02/11 09:51:17;;;;;;;31.00;14.60;;;;;;;8.45;100.00;103458.59;5016697;28;20381;-43
2023/02/11 09:53:43;;;;;;;32.05;13.25;;;;;;;8.46;100.00;103468.38;5013940;28;20069;-44
2023/02/11 09:56:11;;;;;;;29.95;13.23;;;;;;;8.51;100.00;103471.59;5013963;28;20057;-45
2023/02/11 09:58:41;;;;;;;28.65;13.57;;;;;;;8.60;100.00;103463.88;5011693;28;20048;-43
2023/02/11 10:01:39;;;;;;;33.53;13.95;;;;;;;8.63;100.00;103469.03;4996856;28;20063;-42
2023/02/11 10:04:42;;;;;;;26.17;13.60;;;;;;;8.72;100.00;103468.44;5009361;28;20022;-43
2023/02/11 10:07:25;;;;;;;26.98;13.27;;;;;;;8.76;100.00;103469.91;5008420;28;20046;-42
2023/02/11 10:10:03;;;;;;;32.33;13.25;;;;;;;8.82;100.00;103472.19;5037056;28;20029;-44
2023/02/11 10:12:40;;;;;;;29.92;13.30;;;;;;;8.91;100.00;103473.38;5048084;28;20025;-43
2023/02/11 10:15:19;;;;;;;32.60;14.80;;;;;;;8.92;100.00;103470.56;5036862;28;20032;-43
2023/02/11 10:17:58;;;;;;;31.73;13.73;;;;;;;8.95;100.00;103474.88;5014882;28;20125;-43
2023/02/11 10:20:38;;;;;;;29.92;14.10;;;;;;;8.98;100.00;103486.28;5027026;28;20111;-44
2023/02/11 10:23:24;;;;;;;30.90;15.50;;;;;;;9.06;100.00;103498.28;5010422;28;20026;-42
2023/02/11 10:25:53;;;;;;;29.95;14.32;;;;;;;9.04;100.00;103494.88;5012250;28;20030;-44
2023/02/11 10:28:34;;;;;;;36.47;15.38;;;;;;;8.98;100.00;103491.66;5027626;28;20330;-44
2023/02/11 10:31:27;;;;;;;40.78;15.38;;;;;;;8.94;100.00;103494.66;5008652;28;20061;-44
2023/02/11 10:34:03;;;;;;;38.03;15.57;;;;;;;8.93;100.00;103504.53;5014077;28;20045;-44
2023/02/11 10:36:31;;;;;;;35.58;15.48;;;;;;;8.91;100.00;103502.91;5019867;28;20368;-43
2023/02/11 10:39:17;;;;;;;35.13;14.32;;;;;;;8.89;100.00;103507.53;5014876;28;20033;-44
2023/02/11 10:42:04;;;;;;;34.50;14.43;;;;;;;8.98;100.00;103513.13;5017805;28;20061;-42
2023/02/11 10:44:32;;;;;;;43.03;14.70;;;;;;;9.03;100.00;103515.50;5018200;28;20021;-44
2023/02/11 10:47:04;;;;;;;35.38;15.55;;;;;;;9.09;100.00;103514.22;5028696;28;20283;-43
2023/02/11 10:49:36;;;;;;;38.25;15.35;;;;;;;9.11;100.00;103517.63;5030210;28;20523;-44
2023/02/11 10:52:19;;;;;;;35.13;15.63;;;;;;;9.13;100.00;103515.72;5023462;28;20061;-44
2023/02/11 10:55:15;;;;;;;31.45;14.63;;;;;;;9.16;100.00;103520.88;5013762;28;20525;-46
2023/02/11 10:57:43;;;;;;;31.70;15.00;;;;;;;9.11;100.00;103526.59;5025035;28;20509;-43
2023/02/11 11:00:22;;;;;;;39.00;15.93;;;;;;;9.11;100.00;103531.06;5026707;28;20098;-43
2023/02/11 11:02:56;;;;;;;37.22;15.60;;;;;;;9.05;100.00;103531.50;5016175;28;20033;-42
2023/02/11 11:05:29;;;;;;;36.22;16.42;;;;;;;9.04;100.00;103538.72;5025261;28;20060;-44
2023/02/11 11:08:12;;;;;;;36.25;16.83;;;;;;;9.03;100.00;103531.63;5010482;28;20026;-44
2023/02/11 11:10:44;;;;;;;34.22;16.45;;;;;;;9.02;100.00;103546.00;5011367;28;20030;-43
2023/02/11 11:13:51;;;;;;;42.30;17.38;;;;;;;9.06;100.00;103546.66;5011430;28;20322;-44
2023/02/11 11:16:41;;;;;;;44.70;17.53;;;;;;;9.09;100.00;103541.09;5012427;28;20465;-44
2023/02/11 11:19:07;;;;;;;34.67;17.55;;;;;;;9.11;100.00;103555.25;5014084;28;20050;-43
2023/02/11 11:21:51;;;;;;;37.15;17.15;;;;;;;9.02;100.00;103551.38;5014482;28;20026;-44
2023/02/11 11:24:28;;;;;;;31.50;17.13;;;;;;;9.07;100.00;103549.25;5029337;28;20064;-44
2023/02/11 11:26:57;;;;;;;36.13;16.70;;;;;;;9.08;100.00;103550.09;5013547;28;20029;-44
2023/02/11 11:29:34;;;;;;;34.00;16.08;;;;;;;9.06;100.00;103549.34;5014277;28;20272;-44